Time;durP1;ratioP1;P1;durP2;ratioP2;P2;SDS_P1;SDS_P2;PMS_P1;PMS_P2;Temp;Humidity;BMP_temperature;BMP_pressure;BME280_temperature;BME280_humidity;BME280_pressure;Samples;Min_cycle;Max_cycle;Signal;HPM_P1;HPM_P2
2022/03/06 00:00:12;;;;;;;23.92;12.73;;;0.80;99.90;;;;;;5091728;28;20040;-44
2022/03/06 00:02:38;;;;;;;22.58;11.77;;;0.80;99.90;;;;;;5092111;28;20376;-43
2022/03/06 00:05:05;;;;;;;24.00;13.15;;;0.80;99.90;;;;;;5092193;28;20050;-43
2022/03/06 00:07:31;;;;;;;24.75;13.18;;;0.80;99.90;;;;;;5090539;28;20051;-41
2022/03/06 00:09:56;;;;;;;24.20;13.38;;;0.80;99.90;;;;;;5091801;28;20035;-42
2022/03/06 00:12:22;;;;;;;24.73;14.00;;;0.70;99.90;;;;;;5091902;28;20052;-42
2022/03/06 00:14:48;;;;;;;21.60;13.30;;;0.70;99.90;;;;;;5091593;28;20032;-43
2022/03/06 00:17:14;;;;;;;23.50;13.35;;;0.60;99.90;;;;;;5091079;28;20040;-43
2022/03/06 00:19:40;;;;;;;22.45;13.80;;;0.60;99.90;;;;;;5091916;28;20486;-46
2022/03/06 00:22:05;;;;;;;26.40;14.23;;;0.60;99.90;;;;;;5091735;28;20035;-42
2022/03/06 00:24:31;;;;;;;23.77;13.73;;;0.50;99.90;;;;;;5089084;28;20567;-42
2022/03/06 00:26:57;;;;;;;24.80;14.52;;;0.50;99.90;;;;;;5091580;28;20693;-42
2022/03/06 00:29:22;;;;;;;25.73;14.50;;;0.50;99.90;;;;;;5091678;28;20085;-44
2022/03/06 00:31:48;;;;;;;23.95;14.65;;;0.50;99.90;;;;;;5091006;28;20040;-44
2022/03/06 00:34:14;;;;;;;26.42;15.07;;;0.40;99.90;;;;;;5091256;28;20040;-43
2022/03/06 00:36:39;;;;;;;23.98;14.88;;;0.40;99.90;;;;;;5089943;28;20553;-43
2022/03/06 00:39:05;;;;;;;25.50;15.30;;;0.30;99.90;;;;;;5091492;28;20032;-44
2022/03/06 00:41:31;;;;;;;25.23;15.35;;;0.40;99.90;;;;;;5089857;28;20063;-45
2022/03/06 00:43:57;;;;;;;24.42;15.45;;;0.30;99.90;;;;;;5091525;28;20066;-42
2022/03/06 00:46:23;;;;;;;24.98;15.18;;;0.30;99.90;;;;;;5091001;28;20067;-43
2022/03/06 00:48:48;;;;;;;26.42;16.30;;;0.30;99.90;;;;;;5089602;28;20093;-45
2022/03/06 00:51:15;;;;;;;25.08;16.45;;;0.20;99.90;;;;;;5091024;28;20032;-44
2022/03/06 00:53:41;;;;;;;27.42;16.70;;;0.20;99.90;;;;;;5091052;28;20043;-42
2022/03/06 00:56:07;;;;;;;26.10;16.60;;;0.20;99.90;;;;;;5090792;28;20036;-45
2022/03/06 00:58:33;;;;;;;24.05;15.70;;;0.30;99.90;;;;;;5091110;28;20040;-41
2022/03/06 01:00:58;;;;;;;25.67;16.23;;;0.30;99.90;;;;;;5090745;28;20035;-42
2022/03/06 01:03:24;;;;;;;23.98;16.15;;;0.30;99.90;;;;;;5090656;28;20126;-43
2022/03/06 01:05:50;;;;;;;26.02;16.38;;;0.20;99.90;;;;;;5090950;28;20046;-42
2022/03/06 01:08:16;;;;;;;28.05;16.40;;;0.20;99.90;;;;;;5088533;28;20111;-43
2022/03/06 01:10:44;;;;;;;25.98;16.15;;;0.20;99.90;;;;;;5090799;28;20044;-41
2022/03/06 01:13:11;;;;;;;27.50;16.65;;;0.20;99.90;;;;;;5090466;28;20133;-44
2022/03/06 01:15:37;;;;;;;24.58;15.82;;;0.20;99.90;;;;;;5088022;28;20028;-43
2022/03/06 01:18:05;;;;;;;24.30;17.08;;;0.20;99.90;;;;;;5089896;28;20394;-42
2022/03/06 01:20:32;;;;;;;26.13;16.85;;;0.10;99.90;;;;;;5090383;28;20044;-43
2022/03/06 01:22:58;;;;;;;25.13;17.05;;;0.10;99.90;;;;;;5090725;28;20467;-41
2022/03/06 01:25:23;;;;;;;23.92;16.60;;;0.00;99.90;;;;;;5090354;28;20044;-45
2022/03/06 01:27:50;;;;;;;24.48;16.38;;;0.00;99.90;;;;;;5090194;28;20399;-44
2022/03/06 01:30:16;;;;;;;26.23;17.23;;;0.00;99.90;;;;;;5089987;28;20032;-44
2022/03/06 01:32:43;;;;;;;30.70;17.52;;;0.00;99.90;;;;;;5090353;28;20047;-43
2022/03/06 01:35:09;;;;;;;26.58;17.25;;;0.10;99.90;;;;;;5089016;28;20048;-43
2022/03/06 01:37:35;;;;;;;31.23;17.67;;;0.00;99.90;;;;;;5090053;28;20133;-42
2022/03/06 01:40:02;;;;;;;25.70;17.10;;;0.00;99.90;;;;;;5090105;28;20060;-43
2022/03/06 01:42:28;;;;;;;26.98;16.55;;;0.10;99.90;;;;;;5090031;28;20043;-41
2022/03/06 01:44:53;;;;;;;29.20;16.70;;;0.10;99.90;;;;;;5089138;28;20044;-42
2022/03/06 01:47:45;;;;;;;28.63;18.23;;;0.10;99.90;;;;;;5089510;28;20043;-45
2022/03/06 01:50:23;;;;;;;24.88;16.70;;;0.00;99.90;;;;;;5090065;28;20043;-41
2022/03/06 01:52:51;;;;;;;24.50;16.30;;;-0.10;99.90;;;;;;5088008;28;20063;-46
2022/03/06 01:55:18;;;;;;;24.73;17.10;;;0.00;99.90;;;;;;5089690;28;20353;-43
2022/03/06 01:57:46;;;;;;;27.52;17.27;;;0.00;99.90;;;;;;5089834;28;20048;-43
2022/03/06 02:00:16;;;;;;;26.73;17.10;;;0.10;99.90;;;;;;5089991;28;20047;-43
2022/03/06 02:02:42;;;;;;;24.60;16.92;;;0.10;99.90;;;;;;5088504;28;20051;-43
2022/03/06 02:05:08;;;;;;;26.35;16.52;;;0.00;99.90;;;;;;5089890;28;20032;-43
2022/03/06 02:07:34;;;;;;;27.95;17.35;;;-0.10;99.90;;;;;;5089735;28;20040;-42
2022/03/06 02:10:01;;;;;;;25.17;16.95;;;0.00;99.90;;;;;;5088259;28;20168;-43
2022/03/06 02:12:27;;;;;;;29.25;17.55;;;-0.10;99.90;;;;;;5089800;28;20047;-43
2022/03/06 02:14:58;;;;;;;25.27;17.33;;;-0.10;99.90;;;;;;5089756;28;20042;-42
2022/03/06 02:17:25;;;;;;;26.40;17.35;;;-0.10;99.90;;;;;;5089628;28;20089;-44
2022/03/06 02:20:05;;;;;;;25.50;16.65;;;0.00;99.90;;;;;;5089996;28;20036;-42
2022/03/06 02:22:33;;;;;;;28.67;17.65;;;0.10;99.90;;;;;;5090044;28;20047;-43
2022/03/06 02:25:02;;;;;;;24.80;16.98;;;0.10;99.90;;;;;;5088342;28;20113;-43
2022/03/06 02:27:28;;;;;;;22.05;15.70;;;0.10;99.90;;;;;;5089257;28;20039;-43
2022/03/06 02:29:53;;;;;;;27.85;17.42;;;-0.10;99.90;;;;;;5089550;28;20043;-42
2022/03/06 02:32:21;;;;;;;27.23;17.60;;;-0.10;99.90;;;;;;5089493;28;20089;-42
2022/03/06 02:34:48;;;;;;;26.80;16.73;;;0.00;99.90;;;;;;5089610;28;20040;-42
2022/03/06 02:37:16;;;;;;;28.92;17.70;;;0.00;99.90;;;;;;5088527;28;20044;-43
2022/03/06 02:39:46;;;;;;;29.05;17.85;;;-0.10;99.90;;;;;;5087018;28;20036;-44
2022/03/06 02:42:33;;;;;;;24.27;16.42;;;-0.10;99.90;;;;;;5088116;28;20109;-43
2022/03/06 02:45:04;;;;;;;25.15;16.58;;;0.00;99.90;;;;;;5089559;28;20447;-43
2022/03/06 02:47:30;;;;;;;25.75;16.42;;;-0.10;99.90;;;;;;5079897;28;20484;-43
2022/03/06 02:49:56;;;;;;;27.38;16.42;;;-0.10;99.90;;;;;;5085088;28;20047;-45
2022/03/06 02:52:21;;;;;;;26.42;17.17;;;-0.20;99.90;;;;;;5086195;28;20491;-42
2022/03/06 02:54:47;;;;;;;27.95;15.75;;;-0.10;99.90;;;;;;5084006;28;20039;-43
2022/03/06 02:57:13;;;;;;;26.58;16.20;;;-0.10;99.90;;;;;;5090456;28;20035;-42
2022/03/06 02:59:39;;;;;;;25.98;16.65;;;-0.20;99.90;;;;;;5085461;28;20138;-46
2022/03/06 03:02:06;;;;;;;24.38;15.95;;;-0.10;99.90;;;;;;5082297;28;20032;-43
2022/03/06 03:04:33;;;;;;;24.52;16.35;;;-0.10;99.90;;;;;;5091275;28;20045;-42
2022/03/06 03:06:59;;;;;;;26.30;17.55;;;-0.20;99.90;;;;;;5088722;28;20093;-43
2022/03/06 03:09:25;;;;;;;24.30;16.80;;;-0.30;99.90;;;;;;5085095;28;20044;-45
2022/03/06 03:11:52;;;;;;;26.27;16.42;;;-0.20;99.90;;;;;;5085180;28;20896;-41
2022/03/06 03:14:18;;;;;;;23.15;15.90;;;-0.30;99.90;;;;;;5089421;28;20093;-43
2022/03/06 03:16:45;;;;;;;26.55;16.85;;;-0.30;99.90;;;;;;5088610;28;20059;-44
2022/03/06 03:19:11;;;;;;;26.25;16.20;;;-0.30;99.90;;;;;;5085541;28;20158;-44
2022/03/06 03:21:37;;;;;;;25.45;16.45;;;-0.20;99.90;;;;;;5090175;28;20119;-42
2022/03/06 03:24:03;;;;;;;25.70;18.08;;;-0.30;99.90;;;;;;5090056;28;20591;-42
2022/03/06 03:26:29;;;;;;;27.40;17.38;;;-0.40;99.90;;;;;;5092719;28;20047;-42
2022/03/06 03:28:54;;;;;;;30.15;17.33;;;-0.30;99.90;;;;;;5092251;28;20101;-43
2022/03/06 03:31:20;;;;;;;24.52;16.63;;;-0.40;99.90;;;;;;5092395;28;20839;-42
2022/03/06 03:33:46;;;;;;;26.27;16.50;;;-0.30;99.90;;;;;;5092394;28;20434;-42
2022/03/06 03:36:12;;;;;;;29.77;17.33;;;-0.30;99.90;;;;;;5092243;28;20032;-41
2022/03/06 03:38:39;;;;;;;24.30;16.13;;;-0.50;99.90;;;;;;5092020;28;20039;-42
2022/03/06 03:41:09;;;;;;;26.10;16.73;;;-0.30;99.90;;;;;;5092274;28;20128;-44
2022/03/06 03:43:35;;;;;;;32.10;16.98;;;-0.40;99.90;;;;;;5090874;28;20467;-43
2022/03/06 03:46:01;;;;;;;25.17;16.67;;;-0.50;99.90;;;;;;5092012;28;20550;-42
2022/03/06 03:48:29;;;;;;;28.08;17.42;;;-0.60;99.90;;;;;;5091823;28;20032;-43
2022/03/06 03:50:56;;;;;;;28.33;16.17;;;-0.50;99.90;;;;;;5091443;28;20089;-42
2022/03/06 03:53:22;;;;;;;27.02;15.75;;;-0.40;99.90;;;;;;5091589;28;20040;-41
2022/03/06 03:55:48;;;;;;;23.98;16.00;;;-0.60;99.90;;;;;;5092136;28;20085;-42
2022/03/06 03:58:14;;;;;;;22.38;16.20;;;-0.50;99.90;;;;;;5092031;28;20119;-44
2022/03/06 04:00:42;;;;;;;27.10;15.77;;;-0.30;99.90;;;;;;5091867;28;20150;-46
2022/03/06 04:03:08;;;;;;;25.90;16.15;;;-0.50;99.90;;;;;;5091529;28;20071;-44
2022/03/06 04:05:34;;;;;;;24.33;15.57;;;-0.40;99.90;;;;;;5091752;28;20048;-45
2022/03/06 04:08:00;;;;;;;24.63;14.98;;;-0.40;99.90;;;;;;5090679;28;20387;-44
2022/03/06 04:10:25;;;;;;;24.50;14.13;;;-0.40;99.90;;;;;;5091692;28;20077;-45
2022/03/06 04:12:51;;;;;;;25.90;15.57;;;-0.60;99.90;;;;;;5091832;28;20053;-41
2022/03/06 04:15:17;;;;;;;24.50;15.40;;;-0.40;99.90;;;;;;5091652;28;20462;-43
2022/03/06 04:17:42;;;;;;;23.85;14.88;;;-0.40;99.90;;;;;;5091456;28;20498;-42
2022/03/06 04:20:08;;;;;;;21.40;14.10;;;-0.50;99.90;;;;;;5091565;28;20502;-43
2022/03/06 04:22:34;;;;;;;26.33;15.43;;;-0.70;99.90;;;;;;5091512;28;20538;-41
2022/03/06 04:25:00;;;;;;;25.25;15.13;;;-0.50;99.90;;;;;;5091226;28;20403;-42
2022/03/06 04:27:25;;;;;;;22.85;14.73;;;-0.60;99.90;;;;;;5091159;28;20040;-42
2022/03/06 04:29:51;;;;;;;25.50;15.60;;;-0.60;99.90;;;;;;5091224;28;20123;-40
2022/03/06 04:32:17;;;;;;;24.02;14.82;;;-0.70;99.90;;;;;;5091285;28;20039;-43
2022/03/06 04:34:43;;;;;;;24.67;14.90;;;-0.70;99.90;;;;;;5091035;28;20043;-43
2022/03/06 04:37:09;;;;;;;21.67;14.10;;;-0.80;99.90;;;;;;5090823;28;20162;-42
2022/03/06 04:39:35;;;;;;;24.52;15.10;;;-0.60;99.90;;;;;;5091189;28;20445;-42
2022/03/06 04:42:01;;;;;;;26.67;15.15;;;-0.60;99.90;;;;;;5089402;28;20040;-43
2022/03/06 04:44:26;;;;;;;23.00;15.10;;;-0.80;99.90;;;;;;5089561;28;20036;-46
2022/03/06 04:46:52;;;;;;;24.70;15.48;;;-0.80;99.90;;;;;;5091335;28;20046;-42
2022/03/06 04:49:18;;;;;;;25.77;15.50;;;-0.70;99.90;;;;;;5090562;28;21671;-44
2022/03/06 04:51:43;;;;;;;24.35;15.93;;;-0.80;99.90;;;;;;5090806;28;20101;-43
2022/03/06 04:54:09;;;;;;;26.67;16.40;;;-0.70;99.90;;;;;;5090674;28;20130;-43
2022/03/06 04:56:35;;;;;;;24.50;16.02;;;-0.60;99.90;;;;;;5090973;28;20036;-42
2022/03/06 04:59:01;;;;;;;24.70;16.15;;;-0.60;99.90;;;;;;5090755;28;20503;-45
2022/03/06 05:01:28;;;;;;;23.90;16.38;;;-0.90;99.90;;;;;;5090587;28;20036;-44
2022/03/06 05:03:54;;;;;;;25.88;16.05;;;-0.60;99.90;;;;;;5091081;28;20500;-43
2022/03/06 05:06:19;;;;;;;26.77;16.38;;;-0.60;99.90;;;;;;5090581;28;20048;-42
2022/03/06 05:08:45;;;;;;;25.60;15.73;;;-0.60;99.90;;;;;;5090994;28;20035;-42
2022/03/06 05:11:11;;;;;;;25.05;16.75;;;-0.60;99.90;;;;;;5090742;28;20040;-42
2022/03/06 05:13:37;;;;;;;27.10;16.00;;;-0.60;99.90;;;;;;5089296;28;20032;-43
2022/03/06 05:16:03;;;;;;;23.00;15.25;;;-0.80;99.90;;;;;;5089267;28;20119;-42
2022/03/06 05:18:29;;;;;;;23.92;15.40;;;-0.90;99.90;;;;;;5089645;28;20082;-44
2022/03/06 05:20:56;;;;;;;23.35;14.60;;;-0.70;99.90;;;;;;5090404;28;20063;-44
2022/03/06 05:23:21;;;;;;;23.08;14.73;;;-0.60;99.90;;;;;;5090797;28;20070;-41
2022/03/06 05:25:47;;;;;;;21.85;13.88;;;-0.70;99.90;;;;;;5090108;28;20514;-43
2022/03/06 05:28:14;;;;;;;21.17;13.23;;;-0.90;99.90;;;;;;5090684;28;20097;-45
2022/03/06 05:30:40;;;;;;;21.25;13.90;;;-0.80;99.90;;;;;;5090117;28;20153;-45
2022/03/06 05:33:06;;;;;;;23.00;14.27;;;-0.70;99.90;;;;;;5089289;28;20040;-45
2022/03/06 05:35:32;;;;;;;21.20;13.90;;;-0.90;99.90;;;;;;5090176;28;20047;-43
2022/03/06 05:37:58;;;;;;;22.02;13.52;;;-1.00;99.90;;;;;;5089795;28;20032;-44
2022/03/06 05:40:23;;;;;;;20.50;13.23;;;-0.80;99.90;;;;;;5090301;28;20382;-44
2022/03/06 05:42:49;;;;;;;23.88;12.77;;;-0.80;99.90;;;;;;5090100;28;20073;-46
2022/03/06 05:45:15;;;;;;;19.42;13.10;;;-0.80;99.90;;;;;;5089954;28;20035;-42
2022/03/06 05:47:41;;;;;;;23.30;12.25;;;-0.90;99.90;;;;;;5089927;28;20055;-42
2022/03/06 05:50:07;;;;;;;18.27;12.10;;;-0.70;99.90;;;;;;5090023;28;20047;-42
2022/03/06 05:52:33;;;;;;;21.85;12.13;;;-1.00;99.90;;;;;;5088499;28;20044;-44
2022/03/06 05:54:59;;;;;;;21.95;12.23;;;-1.00;99.90;;;;;;5089865;28;20060;-46
2022/03/06 05:57:24;;;;;;;19.02;12.23;;;-0.70;99.90;;;;;;5090169;28;20079;-43
2022/03/06 05:59:52;;;;;;;16.52;10.98;;;-1.00;99.90;;;;;;5090387;28;20032;-45
2022/03/06 06:02:19;;;;;;;18.67;11.43;;;-0.70;99.90;;;;;;5090315;28;20032;-44
2022/03/06 06:04:45;;;;;;;20.55;11.30;;;-1.00;99.90;;;;;;5089788;28;20470;-43
2022/03/06 06:07:11;;;;;;;20.13;10.80;;;-0.60;99.90;;;;;;5089938;28;20036;-43
2022/03/06 06:09:37;;;;;;;16.42;10.85;;;-0.70;99.90;;;;;;5089860;28;20043;-44
2022/03/06 06:12:03;;;;;;;18.10;9.98;;;-0.60;99.90;;;;;;5090081;28;20451;-41
2022/03/06 06:14:29;;;;;;;16.77;10.02;;;-0.90;99.90;;;;;;5089705;28;20040;-44
2022/03/06 06:16:55;;;;;;;18.20;10.25;;;-0.60;99.90;;;;;;5089897;28;20118;-44
2022/03/06 06:19:21;;;;;;;19.67;9.95;;;-0.80;99.90;;;;;;5089515;28;20027;-42
2022/03/06 06:21:46;;;;;;;16.20;10.02;;;-0.50;99.90;;;;;;5089417;28;20046;-44
2022/03/06 06:24:13;;;;;;;16.00;9.23;;;-0.40;99.90;;;;;;5089386;28;20036;-44
2022/03/06 06:26:40;;;;;;;17.73;10.15;;;-0.40;99.90;;;;;;5089539;28;20040;-43
2022/03/06 06:29:05;;;;;;;15.65;9.07;;;-0.40;99.90;;;;;;5089635;28;20398;-45
2022/03/06 06:31:31;;;;;;;14.63;8.73;;;-0.50;99.90;;;;;;5093074;28;20105;-42
2022/03/06 06:33:57;;;;;;;16.48;9.07;;;-0.50;99.90;;;;;;5093465;28;20404;-43
2022/03/06 06:36:23;;;;;;;18.13;9.15;;;-0.60;99.90;;;;;;5093966;28;20503;-43
2022/03/06 06:38:49;;;;;;;17.50;9.02;;;-0.50;99.90;;;;;;5093453;28;20036;-42
2022/03/06 06:41:15;;;;;;;15.63;8.98;;;-0.60;99.90;;;;;;5091234;28;20035;-41
2022/03/06 06:43:42;;;;;;;16.00;8.55;;;-0.30;99.90;;;;;;5093352;28;20040;-42
2022/03/06 06:46:08;;;;;;;14.32;8.43;;;-0.30;99.90;;;;;;5092205;28;20040;-42
2022/03/06 06:48:34;;;;;;;15.15;8.13;;;-0.40;99.90;;;;;;5092779;28;20036;-44
2022/03/06 06:51:00;;;;;;;14.85;8.63;;;-0.50;99.90;;;;;;5093336;28;20093;-44
2022/03/06 06:53:26;;;;;;;15.70;8.60;;;-0.50;99.90;;;;;;5092984;28;20036;-41
2022/03/06 06:55:52;;;;;;;14.52;7.85;;;-0.30;99.90;;;;;;5093424;28;20119;-44
2022/03/06 06:58:17;;;;;;;13.82;7.70;;;-0.20;99.90;;;;;;5092783;28;20032;-43
2022/03/06 07:00:43;;;;;;;15.07;8.40;;;-0.10;99.90;;;;;;5093135;28;20077;-42
2022/03/06 07:03:09;;;;;;;17.15;7.82;;;-0.40;99.90;;;;;;5092715;28;20032;-42
2022/03/06 07:05:35;;;;;;;15.00;7.63;;;-0.30;99.90;;;;;;5092964;28;20399;-44
2022/03/06 07:08:00;;;;;;;15.32;7.32;;;-0.20;99.90;;;;;;5092601;28;20063;-43
2022/03/06 07:10:26;;;;;;;15.90;7.80;;;-0.20;99.90;;;;;;5093145;28;20128;-42
2022/03/06 07:12:55;;;;;;;15.13;7.15;;;-0.10;99.90;;;;;;5092936;28;20028;-42
2022/03/06 07:15:22;;;;;;;13.30;6.93;;;-0.10;99.90;;;;;;5093016;28;20503;-44
2022/03/06 07:17:48;;;;;;;11.57;6.50;;;-0.10;99.90;;;;;;5092516;28;21262;-42
2022/03/06 07:20:14;;;;;;;13.40;7.15;;;0.10;99.90;;;;;;5091351;28;20078;-43
2022/03/06 07:22:40;;;;;;;13.20;7.15;;;0.00;99.90;;;;;;5092410;28;20503;-42
2022/03/06 07:25:06;;;;;;;13.38;7.15;;;0.20;99.90;;;;;;5092542;28;20056;-43
2022/03/06 07:27:32;;;;;;;13.13;6.70;;;0.00;99.90;;;;;;5092688;28;20411;-43
2022/03/06 07:29:58;;;;;;;15.65;6.18;;;0.20;99.90;;;;;;5092418;28;20028;-44
2022/03/06 07:32:24;;;;;;;13.10;6.65;;;0.20;99.90;;;;;;5092628;28;20039;-45
2022/03/06 07:34:49;;;;;;;13.82;7.10;;;0.10;99.90;;;;;;5091086;28;20036;-43
2022/03/06 07:37:15;;;;;;;12.40;6.07;;;0.20;99.90;;;;;;5091992;28;20040;-43
2022/03/06 07:39:41;;;;;;;12.55;6.93;;;0.20;99.90;;;;;;5092306;28;20036;-47
2022/03/06 07:42:07;;;;;;;11.70;6.60;;;0.20;99.90;;;;;;5089100;28;20040;-43
2022/03/06 07:44:33;;;;;;;12.68;6.25;;;0.10;99.90;;;;;;5082191;28;20041;-42
2022/03/06 07:46:59;;;;;;;12.20;6.20;;;0.30;99.90;;;;;;5083275;28;20491;-42
2022/03/06 07:49:25;;;;;;;10.90;5.68;;;0.20;99.90;;;;;;5083567;28;20059;-44
2022/03/06 07:51:50;;;;;;;10.77;5.88;;;0.40;99.90;;;;;;5083244;28;20036;-43
2022/03/06 07:54:17;;;;;;;10.32;5.70;;;0.20;99.90;;;;;;5064825;28;20044;-41
2022/03/06 07:56:45;;;;;;;9.25;5.68;;;0.20;99.90;;;;;;5083280;28;20032;-44
2022/03/06 07:59:11;;;;;;;9.95;5.93;;;0.30;99.90;;;;;;5081511;28;20028;-45
2022/03/06 08:01:36;;;;;;;12.23;5.85;;;0.20;99.90;;;;;;5082163;28;20455;-44
2022/03/06 08:04:02;;;;;;;10.13;4.97;;;0.50;99.90;;;;;;5082277;28;20084;-42
2022/03/06 08:06:28;;;;;;;13.70;5.63;;;0.60;99.90;;;;;;5083595;28;20077;-44
2022/03/06 08:08:53;;;;;;;11.02;5.70;;;0.40;99.90;;;;;;5083353;28;20028;-44
2022/03/06 08:11:19;;;;;;;9.75;5.85;;;0.50;99.90;;;;;;5083868;28;20032;-42
2022/03/06 08:13:45;;;;;;;10.55;5.25;;;0.50;99.90;;;;;;5084375;28;20379;-43
2022/03/06 08:16:10;;;;;;;10.88;5.22;;;0.40;99.90;;;;;;5081840;28;20053;-45
2022/03/06 08:18:36;;;;;;;10.95;6.07;;;0.50;99.90;;;;;;5083089;28;20091;-43
2022/03/06 08:21:02;;;;;;;11.80;5.82;;;0.70;99.90;;;;;;5083676;28;20063;-42
2022/03/06 08:23:28;;;;;;;9.07;5.20;;;0.60;99.90;;;;;;5082925;28;20040;-45
2022/03/06 08:25:54;;;;;;;10.88;5.55;;;0.90;99.90;;;;;;5083004;28;20073;-43
2022/03/06 08:28:20;;;;;;;11.45;5.78;;;1.00;99.90;;;;;;5082921;28;20039;-43
2022/03/06 08:30:45;;;;;;;10.20;5.22;;;0.90;99.90;;;;;;5083809;28;20046;-42
2022/03/06 08:33:12;;;;;;;12.80;4.65;;;0.90;99.90;;;;;;5083258;28;20486;-46
2022/03/06 08:35:37;;;;;;;8.15;4.78;;;0.90;99.90;;;;;;5082996;28;20052;-43
2022/03/06 08:38:03;;;;;;;7.85;4.43;;;1.20;99.90;;;;;;5083505;28;20070;-42
2022/03/06 08:40:29;;;;;;;7.53;4.53;;;1.20;99.90;;;;;;5083660;28;20089;-45
2022/03/06 08:42:55;;;;;;;10.23;4.47;;;1.20;99.90;;;;;;5083128;28;20059;-46
2022/03/06 08:45:20;;;;;;;8.73;4.57;;;1.30;99.90;;;;;;5083267;28;20071;-45
2022/03/06 08:47:46;;;;;;;7.63;3.63;;;1.40;99.90;;;;;;5083553;28;20043;-45
2022/03/06 08:50:12;;;;;;;8.10;4.30;;;1.50;99.90;;;;;;5081288;28;20028;-45
2022/03/06 08:52:37;;;;;;;7.25;4.00;;;1.70;99.90;;;;;;5081134;28;20044;-44
2022/03/06 08:55:04;;;;;;;10.85;3.80;;;1.60;99.90;;;;;;5081710;28;20043;-42
2022/03/06 08:57:29;;;;;;;5.03;2.97;;;1.90;99.90;;;;;;5081927;28;20040;-43
2022/03/06 08:59:55;;;;;;;8.57;3.70;;;1.70;99.90;;;;;;5083389;28;20032;-42
2022/03/06 09:02:21;;;;;;;5.18;3.13;;;1.80;99.90;;;;;;5081039;28;20051;-43
2022/03/06 09:04:47;;;;;;;11.23;3.22;;;1.80;99.90;;;;;;5082162;28;20085;-44
2022/03/06 09:07:12;;;;;;;6.38;3.22;;;2.20;99.90;;;;;;5083021;28;20471;-45
2022/03/06 09:09:38;;;;;;;6.82;3.15;;;2.20;99.90;;;;;;5082699;28;20024;-46
2022/03/06 09:12:04;;;;;;;6.95;2.90;;;2.20;99.90;;;;;;5081288;28;20079;-44
2022/03/06 09:14:30;;;;;;;5.53;2.80;;;2.40;99.90;;;;;;5082415;28;20044;-45
2022/03/06 09:16:56;;;;;;;5.25;3.10;;;2.50;99.90;;;;;;5082350;28;20059;-46
2022/03/06 09:19:21;;;;;;;6.60;3.08;;;2.70;99.90;;;;;;5080976;28;20028;-44
2022/03/06 09:21:47;;;;;;;7.82;3.40;;;2.80;99.90;;;;;;5080547;28;20055;-44
2022/03/06 09:24:13;;;;;;;5.78;2.88;;;2.70;99.90;;;;;;5082438;28;20028;-43
2022/03/06 09:26:39;;;;;;;6.60;3.30;;;3.10;99.90;;;;;;5082400;28;20055;-44
2022/03/06 09:29:05;;;;;;;6.60;3.50;;;3.20;99.90;;;;;;5081075;28;20069;-43
2022/03/06 09:31:31;;;;;;;6.13;3.17;;;3.00;99.90;;;;;;5081942;28;20039;-43
2022/03/06 09:33:57;;;;;;;8.15;3.28;;;3.10;99.90;;;;;;5081229;28;20046;-44
2022/03/06 09:36:23;;;;;;;6.82;3.10;;;3.30;99.90;;;;;;5080732;28;20399;-44
2022/03/06 09:38:49;;;;;;;8.32;2.90;;;3.40;99.90;;;;;;5073714;28;20492;-43
2022/03/06 09:41:17;;;;;;;8.60;3.40;;;3.10;99.90;;;;;;5068923;28;20035;-43
2022/03/06 09:43:43;;;;;;;6.70;3.30;;;3.30;99.90;;;;;;5073507;28;20395;-43
2022/03/06 09:46:09;;;;;;;6.13;3.00;;;3.10;99.90;;;;;;5077903;28;20036;-44
2022/03/06 09:48:36;;;;;;;7.22;3.13;;;3.20;99.90;;;;;;5077005;28;20042;-44
2022/03/06 09:51:03;;;;;;;5.20;3.10;;;3.70;99.90;;;;;;5079422;28;20511;-43
2022/03/06 09:53:29;;;;;;;9.70;3.40;;;3.80;99.90;;;;;;5079733;28;20518;-44
2022/03/06 09:55:55;;;;;;;6.47;3.25;;;3.90;99.90;;;;;;5081052;28;20074;-43
2022/03/06 09:58:21;;;;;;;6.97;3.20;;;4.30;99.90;;;;;;5078454;28;20067;-43
2022/03/06 10:00:47;;;;;;;5.68;3.22;;;4.20;99.90;;;;;;5075041;28;20083;-44
2022/03/06 10:03:18;;;;;;;8.27;3.60;;;3.70;99.90;;;;;;5071307;28;20056;-42
2022/03/06 10:05:44;;;;;;;6.47;3.70;;;4.00;99.90;;;;;;5073868;28;20067;-43
2022/03/06 10:08:16;;;;;;;7.97;3.60;;;4.00;99.90;;;;;;5075768;28;20060;-43
2022/03/06 10:10:43;;;;;;;7.93;3.80;;;4.20;99.90;;;;;;5076605;28;20032;-46
2022/03/06 10:13:42;;;;;;;6.35;3.42;;;4.00;99.90;;;;;;5075800;28;20055;-45
2022/03/06 10:16:12;;;;;;;6.43;3.25;;;4.00;99.90;;;;;;5076951;28;20078;-43
2022/03/06 10:18:47;;;;;;;5.97;3.35;;;4.00;99.90;;;;;;5078685;28;20090;-45
2022/03/06 10:21:17;;;;;;;6.05;3.05;;;4.20;99.90;;;;;;5083236;28;20036;-44
2022/03/06 10:23:44;;;;;;;7.85;3.50;;;4.40;99.90;;;;;;5082940;28;20063;-44
2022/03/06 10:26:19;;;;;;;6.93;3.80;;;4.30;99.90;;;;;;5098575;28;20494;-44
2022/03/06 10:29:04;;;;;;;6.65;3.17;;;4.50;99.90;;;;;;5084142;28;20035;-45
2022/03/06 10:31:34;;;;;;;7.68;3.20;;;4.30;99.90;;;;;;5082867;28;20060;-45
2022/03/06 10:34:07;;;;;;;7.20;3.55;;;4.10;99.90;;;;;;5082145;28;20456;-45
2022/03/06 10:36:44;;;;;;;5.68;2.88;;;4.40;99.90;;;;;;5085324;28;20104;-44
2022/03/06 10:39:19;;;;;;;5.80;2.55;;;4.30;99.90;;;;;;5085388;28;20031;-43
2022/03/06 10:41:47;;;;;;;7.10;2.75;;;4.30;99.90;;;;;;5086243;28;20044;-45
2022/03/06 10:44:15;;;;;;;8.02;3.15;;;4.40;99.90;;;;;;5086193;28;20040;-45
2022/03/06 10:46:42;;;;;;;5.90;2.70;;;4.50;99.90;;;;;;5086835;28;20100;-44
2022/03/06 10:49:13;;;;;;;7.55;2.90;;;4.80;99.90;;;;;;5123095;27;20050;-42
2022/03/06 10:51:45;;;;;;;6.95;2.60;;;5.00;99.90;;;;;;5089664;28;20051;-44
2022/03/06 10:54:14;;;;;;;6.72;2.47;;;5.20;99.90;;;;;;5093521;28;20062;-43
2022/03/06 10:56:42;;;;;;;5.80;2.63;;;5.50;99.90;;;;;;5093836;28;20043;-44
2022/03/06 10:59:08;;;;;;;6.43;2.60;;;5.10;99.90;;;;;;5088808;28;20039;-43
2022/03/06 11:01:36;;;;;;;4.93;2.25;;;5.20;99.90;;;;;;5090866;28;20482;-41
2022/03/06 11:04:04;;;;;;;6.55;2.58;;;5.20;99.90;;;;;;5087116;28;20055;-41
2022/03/06 11:06:38;;;;;;;5.03;2.25;;;5.00;99.90;;;;;;5085236;28;20095;-41
2022/03/06 11:09:05;;;;;;;7.13;2.60;;;5.40;99.90;;;;;;5089735;28;20997;-43
2022/03/06 11:11:33;;;;;;;6.60;2.45;;;5.20;99.90;;;;;;5088385;28;20502;-45
2022/03/06 11:13:59;;;;;;;5.65;2.30;;;5.50;99.90;;;;;;5087827;28;20043;-43
2022/03/06 11:16:25;;;;;;;4.50;2.17;;;5.30;99.90;;;;;;5091576;28;20047;-42
2022/03/06 11:18:52;;;;;;;5.53;2.30;;;5.60;99.90;;;;;;5091460;28;20036;-41
2022/03/06 11:21:18;;;;;;;7.68;2.30;;;5.50;99.90;;;;;;5091418;28;20440;-44
2022/03/06 11:23:51;;;;;;;4.60;2.28;;;5.50;99.90;;;;;;5091586;28;20040;-44
2022/03/06 11:26:16;;;;;;;4.85;2.28;;;5.50;99.90;;;;;;5089051;28;20102;-43
2022/03/06 11:29:07;;;;;;;5.97;2.30;;;5.70;99.90;;;;;;5084536;28;20056;-44
2022/03/06 11:31:50;;;;;;;6.57;2.30;;;5.70;99.90;;;;;;5088910;28;20475;-43
2022/03/06 11:34:27;;;;;;;6.22;2.60;;;5.70;99.90;;;;;;5084928;28;20174;-42
2022/03/06 11:36:54;;;;;;;4.55;2.20;;;5.90;99.90;;;;;;5087132;28;20061;-42
2022/03/06 11:39:31;;;;;;;6.82;2.30;;;5.90;99.90;;;;;;5088520;28;20047;-43
2022/03/06 11:42:03;;;;;;;5.10;2.00;;;6.40;99.90;;;;;;5085410;28;20037;-43
2022/03/06 11:44:39;;;;;;;5.47;2.03;;;6.90;98.60;;;;;;5084001;28;20075;-42
2022/03/06 11:47:39;;;;;;;6.80;2.10;;;6.70;98.70;;;;;;5089266;28;20051;-42
2022/03/06 11:50:06;;;;;;;4.75;2.33;;;6.90;95.60;;;;;;5085696;28;20052;-45
2022/03/06 11:52:36;;;;;;;6.43;2.10;;;7.30;95.80;;;;;;5084775;28;20089;-42
2022/03/06 11:55:23;;;;;;;6.05;2.17;;;7.20;96.90;;;;;;5084673;28;20090;-43
2022/03/06 11:57:50;;;;;;;6.05;2.17;;;7.20;93.70;;;;;;5084937;28;20050;-42
2022/03/06 12:00:29;;;;;;;5.63;2.22;;;7.20;94.10;;;;;;5087428;28;20037;-45
2022/03/06 12:03:00;;;;;;;5.30;2.13;;;7.30;92.60;;;;;;5086674;28;20082;-41
2022/03/06 12:05:53;;;;;;;4.43;2.05;;;7.10;93.00;;;;;;5082907;28;20055;-44
2022/03/06 12:08:22;;;;;;;4.68;2.10;;;7.30;96.20;;;;;;5087198;28;20042;-44
2022/03/06 12:10:48;;;;;;;5.78;2.22;;;7.50;95.50;;;;;;5084809;28;20048;-44
2022/03/06 12:13:18;;;;;;;6.45;2.47;;;7.60;95.40;;;;;;5081387;28;20048;-44
2022/03/06 12:16:01;;;;;;;4.60;2.03;;;7.60;96.40;;;;;;5087418;28;20502;-43
2022/03/06 12:18:27;;;;;;;5.25;2.40;;;7.40;95.40;;;;;;5082390;28;20496;-43
2022/03/06 12:20:52;;;;;;;7.18;2.63;;;7.20;96.00;;;;;;5086366;28;20040;-41
2022/03/06 12:23:28;;;;;;;5.18;2.55;;;7.40;95.60;;;;;;5085127;28;20063;-44
2022/03/06 12:25:59;;;;;;;6.55;2.70;;;7.20;94.90;;;;;;5082658;28;20048;-42
2022/03/06 12:28:43;;;;;;;6.03;2.45;;;7.40;96.10;;;;;;5082022;28;20054;-44
2022/03/06 12:31:32;;;;;;;6.38;2.50;;;7.60;95.20;;;;;;5090096;28;20032;-44
2022/03/06 12:33:59;;;;;;;7.70;2.42;;;7.80;99.50;;;;;;5090029;28;20032;-42
2022/03/06 12:36:26;;;;;;;5.80;2.35;;;8.40;98.20;;;;;;5088934;28;20402;-42
2022/03/06 12:39:05;;;;;;;7.15;2.30;;;8.30;99.90;;;;;;5089888;28;20485;-41
2022/03/06 12:41:32;;;;;;;7.47;2.80;;;8.20;96.80;;;;;;5091289;28;20068;-43